sensor_id;sensor_type;location;lat;lon;timestamp;pressure;altitude;pressure_sealevel;temperature;humidity
46394;BME280;32099;53.588;10.176;2022-09-01T00:00:09;102106.00;;;13.87;65.34
46394;BME280;32099;53.588;10.176;2022-09-01T00:02:37;102106.31;;;13.84;65.57
46394;BME280;32099;53.588;10.176;2022-09-01T00:05:02;102112.16;;;13.81;65.69
46394;BME280;32099;53.588;10.176;2022-09-01T00:07:31;102111.31;;;13.80;65.75
46394;BME280;32099;53.588;10.176;2022-09-01T00:09:58;102113.34;;;13.78;65.55
46394;BME280;32099;53.588;10.176;2022-09-01T00:12:24;102104.28;;;13.78;65.48
46394;BME280;32099;53.588;10.176;2022-09-01T00:14:49;102105.31;;;13.77;65.49
46394;BME280;32099;53.588;10.176;2022-09-01T00:17:15;102106.53;;;13.74;65.50
46394;BME280;32099;53.588;10.176;2022-09-01T00:19:40;102106.66;;;13.72;65.98
46394;BME280;32099;53.588;10.176;2022-09-01T00:22:05;102102.41;;;13.70;66.01
46394;BME280;32099;53.588;10.176;2022-09-01T00:24:31;102111.81;;;13.67;65.72
46394;BME280;32099;53.588;10.176;2022-09-01T00:26:56;102103.06;;;13.64;65.89
46394;BME280;32099;53.588;10.176;2022-09-01T00:29:21;102102.56;;;13.60;66.38
46394;BME280;32099;53.588;10.176;2022-09-01T00:31:47;102101.72;;;13.60;66.03
46394;BME280;32099;53.588;10.176;2022-09-01T00:34:12;102103.06;;;13.55;66.54
46394;BME280;32099;53.588;10.176;2022-09-01T00:36:38;102094.16;;;13.53;66.47
46394;BME280;32099;53.588;10.176;2022-09-01T00:39:03;102088.84;;;13.52;66.60
46394;BME280;32099;53.588;10.176;2022-09-01T00:41:29;102097.25;;;13.50;67.14
46394;BME280;32099;53.588;10.176;2022-09-01T00:43:56;102095.69;;;13.48;66.93
46394;BME280;32099;53.588;10.176;2022-09-01T00:46:24;102090.19;;;13.48;66.87
46394;BME280;32099;53.588;10.176;2022-09-01T00:48:52;102092.94;;;13.48;67.14
46394;BME280;32099;53.588;10.176;2022-09-01T00:51:18;102094.84;;;13.47;67.00
46394;BME280;32099;53.588;10.176;2022-09-01T00:53:43;102091.91;;;13.49;67.02
46394;BME280;32099;53.588;10.176;2022-09-01T00:56:09;102090.06;;;13.49;67.16
46394;BME280;32099;53.588;10.176;2022-09-01T00:58:35;102090.91;;;13.50;67.25
46394;BME280;32099;53.588;10.176;2022-09-01T01:01:02;102089.19;;;13.49;67.22
46394;BME280;32099;53.588;10.176;2022-09-01T01:03:27;102088.16;;;13.50;67.05
46394;BME280;32099;53.588;10.176;2022-09-01T01:05:55;102083.56;;;13.50;67.24
46394;BME280;32099;53.588;10.176;2022-09-01T01:08:23;102080.81;;;13.50;67.44
46394;BME280;32099;53.588;10.176;2022-09-01T01:11:16;102087.13;;;13.51;67.34
46394;BME280;32099;53.588;10.176;2022-09-01T01:13:52;102079.09;;;13.49;67.34
46394;BME280;32099;53.588;10.176;2022-09-01T01:16:18;102080.97;;;13.49;67.13
46394;BME280;32099;53.588;10.176;2022-09-01T01:18:43;102084.06;;;13.46;67.80
46394;BME280;32099;53.588;10.176;2022-09-01T01:21:10;102084.22;;;13.44;67.51
46394;BME280;32099;53.588;10.176;2022-09-01T01:24:28;102083.50;;;13.42;67.68
46394;BME280;32099;53.588;10.176;2022-09-01T01:26:53;102082.69;;;13.41;67.72
46394;BME280;32099;53.588;10.176;2022-09-01T01:29:24;102089.19;;;13.40;67.54
46394;BME280;32099;53.588;10.176;2022-09-01T01:31:50;102085.59;;;13.40;67.56
46394;BME280;32099;53.588;10.176;2022-09-01T01:34:17;102086.59;;;13.39;67.43
46394;BME280;32099;53.588;10.176;2022-09-01T01:36:43;102089.47;;;13.37;67.53
46394;BME280;32099;53.588;10.176;2022-09-01T01:39:13;102093.59;;;13.33;67.88
46394;BME280;32099;53.588;10.176;2022-09-01T01:41:39;102093.06;;;13.30;67.78
46394;BME280;32099;53.588;10.176;2022-09-01T01:44:08;102097.88;;;13.27;68.22
46394;BME280;32099;53.588;10.176;2022-09-01T01:46:34;102095.63;;;13.23;68.01
46394;BME280;32099;53.588;10.176;2022-09-01T01:48:59;102091.31;;;13.20;68.30
46394;BME280;32099;53.588;10.176;2022-09-01T01:51:28;102098.84;;;13.18;68.47
46394;BME280;32099;53.588;10.176;2022-09-01T01:53:55;102093.56;;;13.17;68.25
46394;BME280;32099;53.588;10.176;2022-09-01T01:56:24;102094.41;;;13.17;68.53
46394;BME280;32099;53.588;10.176;2022-09-01T01:58:49;102086.19;;;13.17;68.41
46394;BME280;32099;53.588;10.176;2022-09-01T02:01:20;102080.03;;;13.15;68.53
46394;BME280;32099;53.588;10.176;2022-09-01T02:03:49;102098.19;;;13.16;68.72
46394;BME280;32099;53.588;10.176;2022-09-01T02:06:16;102090.13;;;13.15;68.87
46394;BME280;32099;53.588;10.176;2022-09-01T02:08:41;102086.69;;;13.12;68.96
46394;BME280;32099;53.588;10.176;2022-09-01T02:11:07;102093.19;;;13.11;68.74
46394;BME280;32099;53.588;10.176;2022-09-01T02:13:33;102096.09;;;13.10;68.93
46394;BME280;32099;53.588;10.176;2022-09-01T02:16:00;102088.59;;;13.12;68.94
46394;BME280;32099;53.588;10.176;2022-09-01T02:18:27;102096.28;;;13.08;68.89
46394;BME280;32099;53.588;10.176;2022-09-01T02:20:54;102086.50;;;13.06;69.14
46394;BME280;32099;53.588;10.176;2022-09-01T02:23:22;102093.03;;;13.05;69.45
46394;BME280;32099;53.588;10.176;2022-09-01T02:25:48;102091.81;;;12.99;69.06
46394;BME280;32099;53.588;10.176;2022-09-01T02:28:15;102096.22;;;13.00;69.42
46394;BME280;32099;53.588;10.176;2022-09-01T02:30:41;102089.06;;;12.99;69.44
46394;BME280;32099;53.588;10.176;2022-09-01T02:33:07;102096.59;;;12.97;69.42
46394;BME280;32099;53.588;10.176;2022-09-01T02:35:33;102093.84;;;12.97;69.47
46394;BME280;32099;53.588;10.176;2022-09-01T02:38:02;102091.44;;;12.94;69.35
46394;BME280;32099;53.588;10.176;2022-09-01T02:40:28;102084.41;;;12.91;69.22
46394;BME280;32099;53.588;10.176;2022-09-01T02:42:54;102084.75;;;12.88;69.16
46394;BME280;32099;53.588;10.176;2022-09-01T02:45:19;102083.19;;;12.86;69.40
46394;BME280;32099;53.588;10.176;2022-09-01T02:47:44;102081.63;;;12.83;69.45
46394;BME280;32099;53.588;10.176;2022-09-01T02:50:12;102083.69;;;12.81;69.65
46394;BME280;32099;53.588;10.176;2022-09-01T02:52:41;102081.09;;;12.79;69.62
46394;BME280;32099;53.588;10.176;2022-09-01T02:55:07;102077.53;;;12.79;69.49
46394;BME280;32099;53.588;10.176;2022-09-01T02:57:32;102083.16;;;12.77;69.81
46394;BME280;32099;53.588;10.176;2022-09-01T02:59:58;102077.00;;;12.75;69.59
46394;BME280;32099;53.588;10.176;2022-09-01T03:02:23;102075.28;;;12.74;69.74
46394;BME280;32099;53.588;10.176;2022-09-01T03:04:52;102074.59;;;12.72;69.57
46394;BME280;32099;53.588;10.176;2022-09-01T03:07:19;102074.78;;;12.71;69.90
46394;BME280;32099;53.588;10.176;2022-09-01T03:09:45;102074.06;;;12.69;69.64
46394;BME280;32099;53.588;10.176;2022-09-01T03:12:10;102074.22;;;12.67;69.62
46394;BME280;32099;53.588;10.176;2022-09-01T03:14:35;102079.03;;;12.65;69.54
46394;BME280;32099;53.588;10.176;2022-09-01T03:17:01;102081.06;;;12.63;69.72
46394;BME280;32099;53.588;10.176;2022-09-01T03:19:26;102078.47;;;12.61;69.89
46394;BME280;32099;53.588;10.176;2022-09-01T03:21:51;102087.88;;;12.59;70.00
46394;BME280;32099;53.588;10.176;2022-09-01T03:24:16;102081.69;;;12.57;69.81
46394;BME280;32099;53.588;10.176;2022-09-01T03:26:42;102085.63;;;12.54;69.97
46394;BME280;32099;53.588;10.176;2022-09-01T03:29:07;102089.38;;;12.53;69.95
46394;BME280;32099;53.588;10.176;2022-09-01T03:31:33;102083.06;;;12.53;70.02
46394;BME280;32099;53.588;10.176;2022-09-01T03:33:58;102088.53;;;12.53;70.31
46394;BME280;32099;53.588;10.176;2022-09-01T03:36:24;102085.44;;;12.56;70.55
46394;BME280;32099;53.588;10.176;2022-09-01T03:38:50;102085.31;;;12.57;70.77
46394;BME280;32099;53.588;10.176;2022-09-01T03:41:16;102081.69;;;12.57;70.80
46394;BME280;32099;53.588;10.176;2022-09-01T03:43:42;102080.84;;;12.56;71.01
46394;BME280;32099;53.588;10.176;2022-09-01T03:46:07;102081.69;;;12.57;70.96
46394;BME280;32099;53.588;10.176;2022-09-01T03:48:34;102074.50;;;12.56;71.22
46394;BME280;32099;53.588;10.176;2022-09-01T03:50:59;102076.41;;;12.55;71.32
46394;BME280;32099;53.588;10.176;2022-09-01T03:53:28;102075.38;;;12.56;71.26
46394;BME280;32099;53.588;10.176;2022-09-01T03:55:54;102077.09;;;12.57;71.56
46394;BME280;32099;53.588;10.176;2022-09-01T03:58:21;102076.41;;;12.55;71.42
46394;BME280;32099;53.588;10.176;2022-09-01T04:00:48;102068.19;;;12.55;71.05
46394;BME280;32099;53.588;10.176;2022-09-01T04:03:14;102064.59;;;12.55;71.33
46394;BME280;32099;53.588;10.176;2022-09-01T04:05:43;102073.97;;;12.52;71.06
46394;BME280;32099;53.588;10.176;2022-09-01T04:08:10;102076.03;;;12.50;71.00
46394;BME280;32099;53.588;10.176;2022-09-01T04:10:40;102072.25;;;12.51;70.64
46394;BME280;32099;53.588;10.176;2022-09-01T04:13:07;102064.22;;;12.49;70.56
46394;BME280;32099;53.588;10.176;2022-09-01T04:15:35;102072.63;;;12.48;70.56
46394;BME280;32099;53.588;10.176;2022-09-01T04:18:01;102075.34;;;12.48;70.68
46394;BME280;32099;53.588;10.176;2022-09-01T04:20:43;102066.59;;;12.44;70.81
46394;BME280;32099;53.588;10.176;2022-09-01T04:28:39;102067.09;;;12.40;70.35
46394;BME280;32099;53.588;10.176;2022-09-01T04:31:06;102072.72;;;12.38;70.36
46394;BME280;32099;53.588;10.176;2022-09-01T04:33:33;102076.47;;;12.37;70.44
46394;BME280;32099;53.588;10.176;2022-09-01T04:36:03;102076.66;;;12.36;70.54
46394;BME280;32099;53.588;10.176;2022-09-01T04:38:29;102074.22;;;12.32;70.61
46394;BME280;32099;53.588;10.176;2022-09-01T04:40:54;102074.38;;;12.31;70.93
46394;BME280;32099;53.588;10.176;2022-09-01T04:43:21;102067.66;;;12.25;70.96
46394;BME280;32099;53.588;10.176;2022-09-01T04:45:46;102066.00;;;12.24;70.75
46394;BME280;32099;53.588;10.176;2022-09-01T04:48:13;102077.94;;;12.23;70.74
46394;BME280;32099;53.588;10.176;2022-09-01T04:50:39;102070.59;;;12.24;71.07
46394;BME280;32099;53.588;10.176;2022-09-01T04:53:05;102076.22;;;12.22;71.11
46394;BME280;32099;53.588;10.176;2022-09-01T04:55:30;102073.63;;;12.21;71.10
46394;BME280;32099;53.588;10.176;2022-09-01T04:57:56;102074.50;;;12.21;71.05
46394;BME280;32099;53.588;10.176;2022-09-01T05:00:22;102084.75;;;12.19;71.66
46394;BME280;32099;53.588;10.176;2022-09-01T05:02:49;102082.19;;;12.17;71.42
46394;BME280;32099;53.588;10.176;2022-09-01T05:05:16;102082.31;;;12.16;71.62
46394;BME280;32099;53.588;10.176;2022-09-01T05:07:41;102072.41;;;12.15;71.58
46394;BME280;32099;53.588;10.176;2022-09-01T05:10:07;102082.31;;;12.16;72.43
46394;BME280;32099;53.588;10.176;2022-09-01T05:12:33;102082.19;;;12.17;72.11
46394;BME280;32099;53.588;10.176;2022-09-01T05:14:59;102084.91;;;12.17;72.06
46394;BME280;32099;53.588;10.176;2022-09-01T05:17:26;102079.81;;;12.23;72.57
46394;BME280;32099;53.588;10.176;2022-09-01T05:19:53;102090.44;;;12.26;72.44
46394;BME280;32099;53.588;10.176;2022-09-01T05:22:20;102088.41;;;12.28;72.93
46394;BME280;32099;53.588;10.176;2022-09-01T05:24:47;102092.69;;;12.30;73.23
46394;BME280;32099;53.588;10.176;2022-09-01T05:27:15;102081.41;;;12.33;73.10
46394;BME280;32099;53.588;10.176;2022-09-01T05:29:42;102092.03;;;12.37;72.84
46394;BME280;32099;53.588;10.176;2022-09-01T05:32:07;102091.56;;;12.41;72.97
46394;BME280;32099;53.588;10.176;2022-09-01T05:34:36;102095.66;;;12.45;72.98
46394;BME280;32099;53.588;10.176;2022-09-01T05:37:03;102089.03;;;12.48;72.93
46394;BME280;32099;53.588;10.176;2022-09-01T05:39:29;102085.94;;;12.51;73.08
46394;BME280;32099;53.588;10.176;2022-09-01T05:41:55;102090.06;;;12.55;73.03
46394;BME280;32099;53.588;10.176;2022-09-01T05:44:21;102087.03;;;12.58;72.97
46394;BME280;32099;53.588;10.176;2022-09-01T05:46:46;102095.75;;;12.62;73.18
46394;BME280;32099;53.588;10.176;2022-09-01T05:49:13;102097.13;;;12.66;73.04
46394;BME280;32099;53.588;10.176;2022-09-01T05:51:42;102094.94;;;12.70;73.18
46394;BME280;32099;53.588;10.176;2022-09-01T05:54:08;102102.81;;;12.73;73.06
46394;BME280;32099;53.588;10.176;2022-09-01T05:56:36;102104.03;;;12.78;73.10
46394;BME280;32099;53.588;10.176;2022-09-01T05:59:06;102099.94;;;12.83;72.98
46394;BME280;32099;53.588;10.176;2022-09-01T06:01:32;102095.88;;;12.87;73.54
46394;BME280;32099;53.588;10.176;2022-09-01T06:03:58;102091.06;;;12.89;73.02
46394;BME280;32099;53.588;10.176;2022-09-01T06:06:25;102101.72;;;13.00;73.27
46394;BME280;32099;53.588;10.176;2022-09-01T06:08:51;102103.09;;;13.04;73.10
46394;BME280;32099;53.588;10.176;2022-09-01T06:11:17;102104.50;;;13.08;73.56
46394;BME280;32099;53.588;10.176;2022-09-01T06:13:43;102101.06;;;13.15;73.87
46394;BME280;32099;53.588;10.176;2022-09-01T06:16:11;102098.84;;;13.18;73.65
46394;BME280;32099;53.588;10.176;2022-09-01T06:18:37;102087.94;;;13.26;73.68
46394;BME280;32099;53.588;10.176;2022-09-01T06:21:03;102095.13;;;13.36;73.99
46394;BME280;32099;53.588;10.176;2022-09-01T06:23:28;102095.16;;;13.44;73.70
46394;BME280;32099;53.588;10.176;2022-09-01T06:25:53;102102.56;;;13.52;73.70
46394;BME280;32099;53.588;10.176;2022-09-01T06:28:19;102094.31;;;13.60;73.66
46394;BME280;32099;53.588;10.176;2022-09-01T06:30:45;102104.25;;;13.69;73.57
46394;BME280;32099;53.588;10.176;2022-09-01T06:33:12;102102.56;;;13.77;73.46
46394;BME280;32099;53.588;10.176;2022-09-01T06:35:38;102103.59;;;13.84;73.31
46394;BME280;32099;53.588;10.176;2022-09-01T06:38:04;102096.22;;;13.93;73.55
46394;BME280;32099;53.588;10.176;2022-09-01T06:40:31;102104.28;;;14.02;73.45
46394;BME280;32099;53.588;10.176;2022-09-01T06:42:56;102100.31;;;14.13;73.50
46394;BME280;32099;53.588;10.176;2022-09-01T06:45:25;102100.81;;;14.25;73.56
46394;BME280;32099;53.588;10.176;2022-09-01T06:47:50;102103.84;;;14.39;73.51
46394;BME280;32099;53.588;10.176;2022-09-01T06:50:17;102106.22;;;14.50;73.18
46394;BME280;32099;53.588;10.176;2022-09-01T06:52:43;102108.44;;;14.63;73.32
46394;BME280;32099;53.588;10.176;2022-09-01T06:55:12;102112.34;;;14.77;73.26
46394;BME280;32099;53.588;10.176;2022-09-01T06:57:38;102104.88;;;14.94;72.84
46394;BME280;32099;53.588;10.176;2022-09-01T07:00:08;102108.41;;;15.11;72.89
46394;BME280;32099;53.588;10.176;2022-09-01T07:02:42;102108.44;;;15.34;71.72
46394;BME280;32099;53.588;10.176;2022-09-01T07:05:08;102107.09;;;15.53;70.47
46394;BME280;32099;53.588;10.176;2022-09-01T07:07:34;102112.97;;;15.73;70.91
46394;BME280;32099;53.588;10.176;2022-09-01T07:09:59;102105.47;;;15.91;70.19
46394;BME280;32099;53.588;10.176;2022-09-01T07:12:24;102108.91;;;16.08;70.10
46394;BME280;32099;53.588;10.176;2022-09-01T07:14:49;102107.53;;;16.27;68.67
46394;BME280;32099;53.588;10.176;2022-09-01T07:17:14;102110.38;;;16.48;68.48
46394;BME280;32099;53.588;10.176;2022-09-01T07:19:40;102111.34;;;16.71;68.19
46394;BME280;32099;53.588;10.176;2022-09-01T07:22:05;102116.25;;;16.90;66.29
46394;BME280;32099;53.588;10.176;2022-09-01T07:24:30;102123.38;;;17.15;66.06
46394;BME280;32099;53.588;10.176;2022-09-01T07:26:55;102118.38;;;17.40;64.95
46394;BME280;32099;53.588;10.176;2022-09-01T07:29:20;102127.78;;;17.67;64.03
46394;BME280;32099;53.588;10.176;2022-09-01T07:31:49;102121.44;;;17.95;63.57
46394;BME280;32099;53.588;10.176;2022-09-01T07:34:19;102119.78;;;18.23;61.62
46394;BME280;32099;53.588;10.176;2022-09-01T07:36:45;102121.88;;;18.49;60.47
46394;BME280;32099;53.588;10.176;2022-09-01T07:39:11;102121.81;;;18.77;60.15
46394;BME280;32099;53.588;10.176;2022-09-01T07:41:37;102117.94;;;19.07;59.51
46394;BME280;32099;53.588;10.176;2022-09-01T07:44:06;102118.25;;;19.32;58.29
46394;BME280;32099;53.588;10.176;2022-09-01T07:46:34;102124.00;;;19.51;56.73
46394;BME280;32099;53.588;10.176;2022-09-01T07:48:59;102124.72;;;19.73;56.65
46394;BME280;32099;53.588;10.176;2022-09-01T07:51:25;102126.66;;;19.93;56.90
46394;BME280;32099;53.588;10.176;2022-09-01T07:53:51;102129.84;;;20.16;56.44
46394;BME280;32099;53.588;10.176;2022-09-01T07:56:17;102132.19;;;20.40;55.06
46394;BME280;32099;53.588;10.176;2022-09-01T07:58:44;102125.31;;;20.69;55.11
46394;BME280;32099;53.588;10.176;2022-09-01T08:01:12;102134.44;;;20.90;55.03
46394;BME280;32099;53.588;10.176;2022-09-01T08:03:38;102132.00;;;21.14;55.11
46394;BME280;32099;53.588;10.176;2022-09-01T08:06:04;102132.50;;;21.36;53.81
46394;BME280;32099;53.588;10.176;2022-09-01T08:08:31;102134.13;;;21.50;52.64
46394;BME280;32099;53.588;10.176;2022-09-01T08:10:56;102148.00;;;21.50;52.63
46394;BME280;32099;53.588;10.176;2022-09-01T08:13:21;102137.53;;;21.52;51.73
46394;BME280;32099;53.588;10.176;2022-09-01T08:15:46;102145.47;;;21.49;51.34
46394;BME280;32099;53.588;10.176;2022-09-01T08:18:12;102140.06;;;21.54;52.22
46394;BME280;32099;53.588;10.176;2022-09-01T08:20:38;102135.47;;;21.80;52.87
46394;BME280;32099;53.588;10.176;2022-09-01T08:23:09;102130.09;;;22.10;51.28
46394;BME280;32099;53.588;10.176;2022-09-01T08:25:34;102134.28;;;22.19;52.01
46394;BME280;32099;53.588;10.176;2022-09-01T08:28:00;102137.69;;;22.40;50.76
46394;BME280;32099;53.588;10.176;2022-09-01T08:30:26;102139.63;;;22.65;49.84
46394;BME280;32099;53.588;10.176;2022-09-01T08:32:52;102136.38;;;22.87;50.47
46394;BME280;32099;53.588;10.176;2022-09-01T08:35:17;102131.09;;;23.16;49.61
46394;BME280;32099;53.588;10.176;2022-09-01T08:37:43;102134.22;;;23.26;48.41
46394;BME280;32099;53.588;10.176;2022-09-01T08:40:09;102136.38;;;23.24;48.38
46394;BME280;32099;53.588;10.176;2022-09-01T08:42:39;102145.94;;;23.09;44.75
46394;BME280;32099;53.588;10.176;2022-09-01T08:45:12;102143.03;;;23.04;48.15
46394;BME280;32099;53.588;10.176;2022-09-01T08:47:39;102134.94;;;23.33;47.77
46394;BME280;32099;53.588;10.176;2022-09-01T08:50:05;102144.34;;;23.51;47.46
46394;BME280;32099;53.588;10.176;2022-09-01T08:52:38;102143.91;;;23.66;47.43
46394;BME280;32099;53.588;10.176;2022-09-01T08:57:38;102144.50;;;24.10;46.51
46394;BME280;32099;53.588;10.176;2022-09-01T09:00:05;102142.34;;;24.36;46.12
46394;BME280;32099;53.588;10.176;2022-09-01T09:02:39;102141.25;;;24.37;45.79
46394;BME280;32099;53.588;10.176;2022-09-01T09:05:21;102134.09;;;24.41;45.70
46394;BME280;32099;53.588;10.176;2022-09-01T09:10:17;102137.50;;;24.55;43.11
46394;BME280;32099;53.588;10.176;2022-09-01T09:15:25;102133.50;;;24.51;44.90
46394;BME280;32099;53.588;10.176;2022-09-01T09:18:06;102128.75;;;24.63;43.13
46394;BME280;32099;53.588;10.176;2022-09-01T09:20:33;102119.16;;;24.59;44.89
46394;BME280;32099;53.588;10.176;2022-09-01T09:22:59;102122.19;;;24.82;41.31
46394;BME280;32099;53.588;10.176;2022-09-01T09:25:30;102121.47;;;24.74;44.32
46394;BME280;32099;53.588;10.176;2022-09-01T09:27:55;102121.53;;;25.03;44.00
46394;BME280;32099;53.588;10.176;2022-09-01T09:30:22;102127.38;;;25.31;43.60
46394;BME280;32099;53.588;10.176;2022-09-01T09:37:47;102120.28;;;25.52;42.52
46394;BME280;32099;53.588;10.176;2022-09-01T09:40:14;102116.31;;;25.65;42.34
46394;BME280;32099;53.588;10.176;2022-09-01T09:43:01;102114.94;;;25.67;42.82
46394;BME280;32099;53.588;10.176;2022-09-01T09:45:38;102120.97;;;25.76;42.38
46394;BME280;32099;53.588;10.176;2022-09-01T09:48:27;102112.84;;;25.92;42.14
46394;BME280;32099;53.588;10.176;2022-09-01T09:50:49;102114.31;;;26.11;41.33
46394;BME280;32099;53.588;10.176;2022-09-01T09:55:53;102113.94;;;26.08;40.74
46394;BME280;32099;53.588;10.176;2022-09-01T09:58:20;102103.59;;;26.08;40.38
46394;BME280;32099;53.588;10.176;2022-09-01T10:01:07;102101.84;;;26.02;40.23
46394;BME280;32099;53.588;10.176;2022-09-01T10:03:40;102093.69;;;26.17;39.76
46394;BME280;32099;53.588;10.176;2022-09-01T10:06:08;102086.44;;;26.16;39.71
46394;BME280;32099;53.588;10.176;2022-09-01T10:08:38;102101.50;;;25.81;39.79
46394;BME280;32099;53.588;10.176;2022-09-01T10:11:08;102102.34;;;25.65;41.30
46394;BME280;32099;53.588;10.176;2022-09-01T10:13:34;102092.38;;;25.69;40.17
46394;BME280;32099;53.588;10.176;2022-09-01T10:16:01;102088.22;;;25.71;40.68
46394;BME280;32099;53.588;10.176;2022-09-01T10:18:31;102091.19;;;25.36;40.58
46394;BME280;32099;53.588;10.176;2022-09-01T10:21:00;102090.50;;;24.88;41.35
46394;BME280;32099;53.588;10.176;2022-09-01T10:23:30;102085.22;;;24.50;41.74
46394;BME280;32099;53.588;10.176;2022-09-01T10:25:59;102082.97;;;24.24;42.14
46394;BME280;32099;53.588;10.176;2022-09-01T10:28:25;102077.03;;;24.08;42.50
46394;BME280;32099;53.588;10.176;2022-09-01T10:30:54;102075.81;;;24.16;42.64
46394;BME280;32099;53.588;10.176;2022-09-01T10:33:20;102071.72;;;24.07;40.64
46394;BME280;32099;53.588;10.176;2022-09-01T10:35:48;102081.34;;;23.80;42.38
46394;BME280;32099;53.588;10.176;2022-09-01T10:38:16;102068.13;;;23.64;41.65
46394;BME280;32099;53.588;10.176;2022-09-01T10:40:43;102076.94;;;23.61;42.86
46394;BME280;32099;53.588;10.176;2022-09-01T10:45:50;102072.34;;;23.54;43.14
46394;BME280;32099;53.588;10.176;2022-09-01T10:48:36;102077.31;;;23.52;42.87
46394;BME280;32099;53.588;10.176;2022-09-01T10:53:41;102076.88;;;23.37;42.80
46394;BME280;32099;53.588;10.176;2022-09-01T10:56:12;102071.81;;;23.34;43.65
46394;BME280;32099;53.588;10.176;2022-09-01T11:02:02;102079.53;;;23.13;43.71
46394;BME280;32099;53.588;10.176;2022-09-01T11:06:59;102078.59;;;22.89;44.22
46394;BME280;32099;53.588;10.176;2022-09-01T11:09:30;102073.31;;;22.99;43.96
46394;BME280;32099;53.588;10.176;2022-09-01T11:14:21;102073.16;;;23.43;43.61
46394;BME280;32099;53.588;10.176;2022-09-01T11:19:36;102083.28;;;23.80;43.06
46394;BME280;32099;53.588;10.176;2022-09-01T11:24:48;102074.16;;;23.49;43.36
46394;BME280;32099;53.588;10.176;2022-09-01T11:29:58;102062.72;;;23.08;44.05
46394;BME280;32099;53.588;10.176;2022-09-01T11:32:26;102063.38;;;22.91;44.09
46394;BME280;32099;53.588;10.176;2022-09-01T11:34:55;102072.03;;;22.83;44.45
46394;BME280;32099;53.588;10.176;2022-09-01T11:37:22;102061.53;;;22.85;45.35
46394;BME280;32099;53.588;10.176;2022-09-01T11:39:50;102052.53;;;23.02;44.37
46394;BME280;32099;53.588;10.176;2022-09-01T11:47:25;102058.38;;;23.31;41.98
46394;BME280;32099;53.588;10.176;2022-09-01T11:49:58;102054.03;;;23.35;42.62
46394;BME280;32099;53.588;10.176;2022-09-01T11:52:25;102053.69;;;23.43;42.18
46394;BME280;32099;53.588;10.176;2022-09-01T11:54:51;102050.78;;;23.50;41.01
46394;BME280;32099;53.588;10.176;2022-09-01T12:00:03;102054.94;;;23.71;40.99
46394;BME280;32099;53.588;10.176;2022-09-01T12:02:30;102039.59;;;23.80;41.30
46394;BME280;32099;53.588;10.176;2022-09-01T12:04:57;102041.13;;;23.88;41.23
46394;BME280;32099;53.588;10.176;2022-09-01T12:07:27;102039.50;;;23.99;41.23
46394;BME280;32099;53.588;10.176;2022-09-01T12:09:54;102037.81;;;24.10;40.15
46394;BME280;32099;53.588;10.176;2022-09-01T12:12:30;102038.91;;;24.09;40.58
46394;BME280;32099;53.588;10.176;2022-09-01T12:14:56;102038.13;;;24.25;40.81
46394;BME280;32099;53.588;10.176;2022-09-01T12:17:22;102030.59;;;24.38;40.23
46394;BME280;32099;53.588;10.176;2022-09-01T12:19:47;102025.38;;;24.41;38.83
46394;BME280;32099;53.588;10.176;2022-09-01T12:22:13;102028.50;;;24.45;40.46
46394;BME280;32099;53.588;10.176;2022-09-01T12:24:43;102023.75;;;24.57;39.98
46394;BME280;32099;53.588;10.176;2022-09-01T12:27:09;102026.56;;;24.69;37.30
46394;BME280;32099;53.588;10.176;2022-09-01T12:29:34;102021.81;;;24.70;37.06
46394;BME280;32099;53.588;10.176;2022-09-01T12:32:01;102030.66;;;24.67;38.09
46394;BME280;32099;53.588;10.176;2022-09-01T12:37:05;102022.19;;;24.61;39.25
46394;BME280;32099;53.588;10.176;2022-09-01T12:39:49;102015.78;;;24.61;39.13
46394;BME280;32099;53.588;10.176;2022-09-01T12:44:59;102013.91;;;25.07;39.30
46394;BME280;32099;53.588;10.176;2022-09-01T12:52:32;102008.59;;;25.23;38.73
46394;BME280;32099;53.588;10.176;2022-09-01T12:57:25;102007.06;;;25.44;38.76
46394;BME280;32099;53.588;10.176;2022-09-01T13:02:37;102009.59;;;26.41;40.07
46394;BME280;32099;53.588;10.176;2022-09-01T13:05:18;102003.47;;;27.16;38.87
46394;BME280;32099;53.588;10.176;2022-09-01T13:07:43;102009.13;;;27.86;38.79
46394;BME280;32099;53.588;10.176;2022-09-01T13:10:09;102013.13;;;27.58;38.91
46394;BME280;32099;53.588;10.176;2022-09-01T13:12:37;102010.72;;;27.12;39.50
46394;BME280;32099;53.588;10.176;2022-09-01T13:15:04;102007.41;;;26.66;39.72
46394;BME280;32099;53.588;10.176;2022-09-01T13:17:30;102006.88;;;26.24;40.17
46394;BME280;32099;53.588;10.176;2022-09-01T13:19:55;102016.16;;;25.91;39.66
46394;BME280;32099;53.588;10.176;2022-09-01T13:22:20;102009.41;;;26.70;39.57
46394;BME280;32099;53.588;10.176;2022-09-01T13:24:45;102013.41;;;30.65;33.17
46394;BME280;32099;53.588;10.176;2022-09-01T13:27:10;102006.56;;;34.56;28.10
46394;BME280;32099;53.588;10.176;2022-09-01T13:29:37;102010.72;;;36.58;25.57
46394;BME280;32099;53.588;10.176;2022-09-01T13:32:02;102002.91;;;34.00;28.02
46394;BME280;32099;53.588;10.176;2022-09-01T13:34:27;102004.78;;;31.65;30.69
46394;BME280;32099;53.588;10.176;2022-09-01T13:36:52;102006.88;;;29.83;32.98
46394;BME280;32099;53.588;10.176;2022-09-01T13:39:18;101999.03;;;28.33;34.00
46394;BME280;32099;53.588;10.176;2022-09-01T13:41:43;101990.78;;;27.36;36.07
46394;BME280;32099;53.588;10.176;2022-09-01T13:44:08;101993.41;;;26.66;36.40
46394;BME280;32099;53.588;10.176;2022-09-01T13:46:34;101988.34;;;26.18;37.08